Fullerton, CA

12:30 PM PST on February 12, 2016 (GMT -0800)
APRSWXNET | | Change Station
CLOSE
Current Station
Personal Weather Station
Location: Fullerton, CA
Elevation: 213 ft
Nearby Weather Stations

Elev 213 ft 33.90 °N, 117.90 °W | Updated 46 minutes ago

Clear
Clear
84 °F
Feels Like 81 °F
N
0
Wind Variable Wind from West
Gusts 4.0 mph

Today
High -- | Low -- °F
--% Chance of Precip.
Yesterday
High -- | Low -- °F
Precip. -- in
Pressure 30.07 in
Visibility 9.0 miles
Clouds Clear
Heat Index 81 °F
Dew Point 39 °F
Humidity 20%
Rainfall in
Snow Depth Not available.
6:39 AM 5:32 PM
Waxing Crescent, 23% visible
METAR KFUL 121953Z 00000KT 9SM CLR 28/01 A3007 RMK AO2 SLP183 T02780011
Pressure 30.07 in
Visibility 9.0 miles
Clouds Clear
Heat Index 81 °F
Dew Point 39 °F
Humidity 20%
Rainfall in
Snow Depth Not available.
6:39 AM 5:32 PM
Waxing Crescent, 23% visible
METAR KFUL 121953Z 00000KT 9SM CLR 28/01 A3007 RMK AO2 SLP183 T02780011

10-Day Weather Forecast

Almanac

Astronomy

Feb. 12, 2016 Rise Set
Actual Time
Civil Twilight
Nautical Twilight
Astronomical Twilight
Moon
Length of Visible Light
Length of Day
Tomorrow will be .
, % of the Moon is Illuminated

Today's Extremes

State Highs State Lows

Community

WunderPhotos

Upload Photos

1,892,388 photos uploaded!

WunderBlog® & News

Nearby

Air Quality

  Air Quality AQ Index Pollutant
Not available.

Snow Depth

Station Depth Elevation

Earthquake Activity

City Distance Mag. Time & Date
Minimum magnitude displayed is 2.5.

Coastal Water Temperatures

Place Temperature

Stations

Nearby Weather Stations

Station Location Temp. Windchill Dew Point Humidity Wind Precip. Elev Updated Type
                   

Watches & Warnings

There are currently no watches in effect.